sensor_id;sensor_type;location;lat;lon;timestamp;P1;durP1;ratioP1;P2;durP2;ratioP2
31526;SDS011;18136;42.236;-73.040;2024-03-25T00:00:12;6.00;;;3.72;;
31526;SDS011;18136;42.236;-73.040;2024-03-25T00:02:40;4.93;;;3.25;;
31526;SDS011;18136;42.236;-73.040;2024-03-25T00:05:08;4.53;;;3.28;;
31526;SDS011;18136;42.236;-73.040;2024-03-25T00:07:35;4.18;;;2.70;;
31526;SDS011;18136;42.236;-73.040;2024-03-25T00:10:05;3.80;;;2.80;;
31526;SDS011;18136;42.236;-73.040;2024-03-25T00:12:33;2.90;;;2.53;;
31526;SDS011;18136;42.236;-73.040;2024-03-25T00:15:00;3.92;;;2.53;;
31526;SDS011;18136;42.236;-73.040;2024-03-25T00:17:26;3.55;;;2.58;;
31526;SDS011;18136;42.236;-73.040;2024-03-25T00:19:53;4.03;;;3.05;;
31526;SDS011;18136;42.236;-73.040;2024-03-25T00:22:19;3.95;;;3.55;;
31526;SDS011;18136;42.236;-73.040;2024-03-25T00:24:47;4.43;;;3.63;;
31526;SDS011;18136;42.236;-73.040;2024-03-25T00:27:14;5.25;;;4.75;;
31526;SDS011;18136;42.236;-73.040;2024-03-25T00:29:40;4.25;;;3.28;;
31526;SDS011;18136;42.236;-73.040;2024-03-25T00:32:06;3.65;;;1.95;;
31526;SDS011;18136;42.236;-73.040;2024-03-25T00:34:33;3.03;;;2.30;;
31526;SDS011;18136;42.236;-73.040;2024-03-25T00:37:02;2.58;;;1.90;;
31526;SDS011;18136;42.236;-73.040;2024-03-25T00:39:31;3.70;;;2.45;;
31526;SDS011;18136;42.236;-73.040;2024-03-25T00:41:58;2.97;;;2.10;;
31526;SDS011;18136;42.236;-73.040;2024-03-25T00:44:24;2.95;;;1.90;;
31526;SDS011;18136;42.236;-73.040;2024-03-25T00:46:51;3.40;;;1.65;;
31526;SDS011;18136;42.236;-73.040;2024-03-25T00:49:18;1.92;;;1.73;;
31526;SDS011;18136;42.236;-73.040;2024-03-25T00:51:44;1.95;;;1.65;;
31526;SDS011;18136;42.236;-73.040;2024-03-25T00:54:10;2.42;;;1.60;;
31526;SDS011;18136;42.236;-73.040;2024-03-25T00:56:36;1.90;;;1.50;;
31526;SDS011;18136;42.236;-73.040;2024-03-25T00:59:03;2.88;;;2.08;;
31526;SDS011;18136;42.236;-73.040;2024-03-25T01:01:35;2.40;;;1.70;;
31526;SDS011;18136;42.236;-73.040;2024-03-25T01:04:02;4.50;;;2.20;;
31526;SDS011;18136;42.236;-73.040;2024-03-25T01:06:28;2.22;;;1.58;;
31526;SDS011;18136;42.236;-73.040;2024-03-25T01:08:55;3.45;;;1.90;;
31526;SDS011;18136;42.236;-73.040;2024-03-25T01:11:22;2.20;;;1.55;;
31526;SDS011;18136;42.236;-73.040;2024-03-25T01:13:48;2.38;;;2.10;;
31526;SDS011;18136;42.236;-73.040;2024-03-25T01:16:14;3.75;;;2.00;;
31526;SDS011;18136;42.236;-73.040;2024-03-25T01:18:41;2.78;;;1.90;;
31526;SDS011;18136;42.236;-73.040;2024-03-25T01:21:09;2.10;;;1.63;;
31526;SDS011;18136;42.236;-73.040;2024-03-25T01:23:35;3.10;;;1.67;;
31526;SDS011;18136;42.236;-73.040;2024-03-25T01:26:01;2.85;;;1.98;;
31526;SDS011;18136;42.236;-73.040;2024-03-25T01:28:27;2.88;;;1.70;;
31526;SDS011;18136;42.236;-73.040;2024-03-25T01:30:53;2.47;;;1.88;;
31526;SDS011;18136;42.236;-73.040;2024-03-25T01:33:20;1.95;;;1.70;;
31526;SDS011;18136;42.236;-73.040;2024-03-25T01:35:46;5.55;;;2.30;;
31526;SDS011;18136;42.236;-73.040;2024-03-25T01:38:13;3.30;;;1.90;;
31526;SDS011;18136;42.236;-73.040;2024-03-25T01:40:39;2.10;;;1.70;;
31526;SDS011;18136;42.236;-73.040;2024-03-25T01:43:05;2.05;;;1.60;;
31526;SDS011;18136;42.236;-73.040;2024-03-25T01:45:34;2.90;;;1.92;;
31526;SDS011;18136;42.236;-73.040;2024-03-25T01:48:04;2.75;;;1.85;;
31526;SDS011;18136;42.236;-73.040;2024-03-25T01:50:42;3.35;;;1.98;;
31526;SDS011;18136;42.236;-73.040;2024-03-25T01:53:10;3.20;;;1.92;;
31526;SDS011;18136;42.236;-73.040;2024-03-25T01:55:39;2.65;;;2.03;;
31526;SDS011;18136;42.236;-73.040;2024-03-25T01:58:07;2.30;;;1.63;;
31526;SDS011;18136;42.236;-73.040;2024-03-25T02:00:34;2.53;;;1.85;;
31526;SDS011;18136;42.236;-73.040;2024-03-25T02:03:00;4.22;;;2.15;;
31526;SDS011;18136;42.236;-73.040;2024-03-25T02:05:27;4.47;;;2.20;;
31526;SDS011;18136;42.236;-73.040;2024-03-25T02:07:54;2.70;;;2.05;;
31526;SDS011;18136;42.236;-73.040;2024-03-25T02:10:21;3.45;;;1.73;;
31526;SDS011;18136;42.236;-73.040;2024-03-25T02:12:47;3.45;;;1.80;;
31526;SDS011;18136;42.236;-73.040;2024-03-25T02:15:15;2.85;;;1.80;;
31526;SDS011;18136;42.236;-73.040;2024-03-25T02:17:41;4.05;;;2.10;;
31526;SDS011;18136;42.236;-73.040;2024-03-25T02:20:08;2.50;;;1.73;;
31526;SDS011;18136;42.236;-73.040;2024-03-25T02:22:35;1.95;;;1.70;;
31526;SDS011;18136;42.236;-73.040;2024-03-25T02:25:01;3.15;;;1.90;;
31526;SDS011;18136;42.236;-73.040;2024-03-25T02:27:36;4.30;;;2.30;;
31526;SDS011;18136;42.236;-73.040;2024-03-25T02:32:36;2.70;;;2.00;;
31526;SDS011;18136;42.236;-73.040;2024-03-25T02:35:03;3.22;;;2.10;;
31526;SDS011;18136;42.236;-73.040;2024-03-25T02:37:33;6.88;;;2.28;;
31526;SDS011;18136;42.236;-73.040;2024-03-25T02:40:00;2.80;;;2.10;;
31526;SDS011;18136;42.236;-73.040;2024-03-25T02:42:31;3.55;;;1.90;;
31526;SDS011;18136;42.236;-73.040;2024-03-25T02:44:57;3.13;;;2.28;;
31526;SDS011;18136;42.236;-73.040;2024-03-25T02:47:24;1.70;;;1.48;;
31526;SDS011;18136;42.236;-73.040;2024-03-25T02:49:51;3.10;;;2.08;;
31526;SDS011;18136;42.236;-73.040;2024-03-25T02:52:18;3.08;;;2.10;;
31526;SDS011;18136;42.236;-73.040;2024-03-25T02:54:44;2.78;;;1.80;;
31526;SDS011;18136;42.236;-73.040;2024-03-25T02:57:11;4.85;;;2.10;;
31526;SDS011;18136;42.236;-73.040;2024-03-25T02:59:37;3.20;;;2.00;;
31526;SDS011;18136;42.236;-73.040;2024-03-25T03:02:03;2.97;;;2.17;;
31526;SDS011;18136;42.236;-73.040;2024-03-25T03:04:29;2.58;;;2.08;;
31526;SDS011;18136;42.236;-73.040;2024-03-25T03:06:56;4.35;;;2.30;;
31526;SDS011;18136;42.236;-73.040;2024-03-25T03:09:22;3.05;;;2.30;;
31526;SDS011;18136;42.236;-73.040;2024-03-25T03:11:48;2.83;;;2.00;;
31526;SDS011;18136;42.236;-73.040;2024-03-25T03:14:14;4.57;;;2.50;;
31526;SDS011;18136;42.236;-73.040;2024-03-25T03:16:42;3.25;;;2.13;;
31526;SDS011;18136;42.236;-73.040;2024-03-25T03:19:08;6.43;;;2.53;;
31526;SDS011;18136;42.236;-73.040;2024-03-25T03:21:35;4.18;;;2.47;;
31526;SDS011;18136;42.236;-73.040;2024-03-25T03:24:02;2.45;;;2.20;;
31526;SDS011;18136;42.236;-73.040;2024-03-25T03:26:29;3.90;;;2.38;;
31526;SDS011;18136;42.236;-73.040;2024-03-25T03:28:55;3.85;;;2.60;;
31526;SDS011;18136;42.236;-73.040;2024-03-25T03:31:25;3.85;;;2.22;;
31526;SDS011;18136;42.236;-73.040;2024-03-25T03:33:57;3.15;;;2.35;;
31526;SDS011;18136;42.236;-73.040;2024-03-25T03:36:24;3.50;;;2.50;;
31526;SDS011;18136;42.236;-73.040;2024-03-25T03:38:50;3.72;;;2.17;;
31526;SDS011;18136;42.236;-73.040;2024-03-25T03:41:19;3.08;;;2.20;;
31526;SDS011;18136;42.236;-73.040;2024-03-25T03:43:45;3.50;;;2.10;;
31526;SDS011;18136;42.236;-73.040;2024-03-25T03:46:11;3.85;;;1.98;;
31526;SDS011;18136;42.236;-73.040;2024-03-25T03:48:37;3.05;;;2.10;;
31526;SDS011;18136;42.236;-73.040;2024-03-25T03:51:07;2.47;;;2.03;;
31526;SDS011;18136;42.236;-73.040;2024-03-25T03:53:34;3.50;;;2.58;;
31526;SDS011;18136;42.236;-73.040;2024-03-25T03:56:04;4.28;;;2.50;;
31526;SDS011;18136;42.236;-73.040;2024-03-25T03:58:31;3.42;;;2.35;;
31526;SDS011;18136;42.236;-73.040;2024-03-25T04:00:58;4.25;;;2.60;;
31526;SDS011;18136;42.236;-73.040;2024-03-25T04:03:24;3.85;;;2.28;;
31526;SDS011;18136;42.236;-73.040;2024-03-25T04:05:50;3.30;;;2.65;;
31526;SDS011;18136;42.236;-73.040;2024-03-25T04:08:16;4.25;;;2.55;;
31526;SDS011;18136;42.236;-73.040;2024-03-25T04:10:43;3.60;;;2.00;;
31526;SDS011;18136;42.236;-73.040;2024-03-25T04:13:10;3.75;;;2.35;;
31526;SDS011;18136;42.236;-73.040;2024-03-25T04:15:37;3.22;;;2.30;;
31526;SDS011;18136;42.236;-73.040;2024-03-25T04:18:04;2.72;;;1.92;;
31526;SDS011;18136;42.236;-73.040;2024-03-25T04:20:40;3.03;;;2.42;;
31526;SDS011;18136;42.236;-73.040;2024-03-25T04:23:07;4.32;;;2.35;;
31526;SDS011;18136;42.236;-73.040;2024-03-25T04:25:34;3.67;;;2.47;;
31526;SDS011;18136;42.236;-73.040;2024-03-25T04:28:02;3.55;;;2.08;;
31526;SDS011;18136;42.236;-73.040;2024-03-25T04:30:30;2.92;;;1.90;;
31526;SDS011;18136;42.236;-73.040;2024-03-25T04:32:56;3.20;;;2.17;;
31526;SDS011;18136;42.236;-73.040;2024-03-25T04:35:22;2.80;;;1.80;;
31526;SDS011;18136;42.236;-73.040;2024-03-25T04:37:48;2.78;;;2.00;;
31526;SDS011;18136;42.236;-73.040;2024-03-25T04:40:15;3.50;;;2.22;;
31526;SDS011;18136;42.236;-73.040;2024-03-25T04:42:45;2.22;;;1.77;;
31526;SDS011;18136;42.236;-73.040;2024-03-25T04:45:11;2.50;;;2.10;;
31526;SDS011;18136;42.236;-73.040;2024-03-25T04:47:37;2.58;;;1.83;;
31526;SDS011;18136;42.236;-73.040;2024-03-25T04:50:03;2.78;;;2.00;;
31526;SDS011;18136;42.236;-73.040;2024-03-25T04:52:31;3.00;;;2.20;;
31526;SDS011;18136;42.236;-73.040;2024-03-25T04:54:57;2.58;;;1.73;;
31526;SDS011;18136;42.236;-73.040;2024-03-25T04:57:25;3.47;;;1.90;;
31526;SDS011;18136;42.236;-73.040;2024-03-25T04:59:52;3.22;;;2.00;;
31526;SDS011;18136;42.236;-73.040;2024-03-25T05:02:18;3.92;;;2.10;;
31526;SDS011;18136;42.236;-73.040;2024-03-25T05:04:44;3.50;;;1.90;;
31526;SDS011;18136;42.236;-73.040;2024-03-25T05:07:12;3.47;;;2.03;;
31526;SDS011;18136;42.236;-73.040;2024-03-25T05:09:38;3.13;;;1.92;;
31526;SDS011;18136;42.236;-73.040;2024-03-25T05:12:04;2.28;;;1.75;;
31526;SDS011;18136;42.236;-73.040;2024-03-25T05:14:31;2.33;;;1.90;;
31526;SDS011;18136;42.236;-73.040;2024-03-25T05:16:57;2.53;;;1.92;;
31526;SDS011;18136;42.236;-73.040;2024-03-25T05:19:24;2.95;;;1.90;;
31526;SDS011;18136;42.236;-73.040;2024-03-25T05:21:51;3.38;;;1.90;;
31526;SDS011;18136;42.236;-73.040;2024-03-25T05:24:17;1.58;;;1.30;;
31526;SDS011;18136;42.236;-73.040;2024-03-25T05:26:43;2.63;;;1.77;;
31526;SDS011;18136;42.236;-73.040;2024-03-25T05:29:09;2.30;;;1.42;;
31526;SDS011;18136;42.236;-73.040;2024-03-25T05:31:36;2.30;;;1.63;;
31526;SDS011;18136;42.236;-73.040;2024-03-25T05:34:03;2.00;;;1.70;;
31526;SDS011;18136;42.236;-73.040;2024-03-25T05:36:34;2.38;;;1.60;;
31526;SDS011;18136;42.236;-73.040;2024-03-25T05:39:00;2.10;;;1.63;;
31526;SDS011;18136;42.236;-73.040;2024-03-25T05:41:27;2.20;;;1.60;;
31526;SDS011;18136;42.236;-73.040;2024-03-25T05:43:54;4.53;;;2.08;;
31526;SDS011;18136;42.236;-73.040;2024-03-25T05:46:20;2.85;;;2.05;;
31526;SDS011;18136;42.236;-73.040;2024-03-25T05:48:46;2.22;;;1.48;;
31526;SDS011;18136;42.236;-73.040;2024-03-25T05:51:13;2.65;;;1.40;;
31526;SDS011;18136;42.236;-73.040;2024-03-25T05:53:40;2.30;;;1.70;;
31526;SDS011;18136;42.236;-73.040;2024-03-25T05:56:06;2.95;;;1.95;;
31526;SDS011;18136;42.236;-73.040;2024-03-25T05:58:32;1.92;;;1.63;;
31526;SDS011;18136;42.236;-73.040;2024-03-25T06:00:58;1.80;;;1.50;;
31526;SDS011;18136;42.236;-73.040;2024-03-25T06:03:26;1.83;;;1.40;;
31526;SDS011;18136;42.236;-73.040;2024-03-25T06:05:53;2.60;;;1.73;;
31526;SDS011;18136;42.236;-73.040;2024-03-25T06:08:20;3.47;;;1.90;;
31526;SDS011;18136;42.236;-73.040;2024-03-25T06:10:50;3.88;;;1.73;;
31526;SDS011;18136;42.236;-73.040;2024-03-25T06:13:16;2.65;;;1.80;;
31526;SDS011;18136;42.236;-73.040;2024-03-25T06:15:43;2.30;;;1.60;;
31526;SDS011;18136;42.236;-73.040;2024-03-25T06:18:09;1.33;;;1.23;;
31526;SDS011;18136;42.236;-73.040;2024-03-25T06:20:36;2.35;;;1.80;;
31526;SDS011;18136;42.236;-73.040;2024-03-25T06:23:03;1.73;;;1.50;;
31526;SDS011;18136;42.236;-73.040;2024-03-25T06:25:29;1.75;;;1.65;;
31526;SDS011;18136;42.236;-73.040;2024-03-25T06:27:56;2.35;;;1.80;;
31526;SDS011;18136;42.236;-73.040;2024-03-25T06:30:22;1.95;;;1.48;;
31526;SDS011;18136;42.236;-73.040;2024-03-25T06:33:07;2.35;;;1.77;;
31526;SDS011;18136;42.236;-73.040;2024-03-25T06:35:51;2.75;;;1.50;;
31526;SDS011;18136;42.236;-73.040;2024-03-25T06:38:18;2.05;;;1.77;;
31526;SDS011;18136;42.236;-73.040;2024-03-25T06:40:45;1.88;;;1.48;;
31526;SDS011;18136;42.236;-73.040;2024-03-25T06:43:12;2.45;;;1.55;;
31526;SDS011;18136;42.236;-73.040;2024-03-25T06:45:39;3.42;;;1.67;;
31526;SDS011;18136;42.236;-73.040;2024-03-25T06:48:07;2.58;;;1.80;;
31526;SDS011;18136;42.236;-73.040;2024-03-25T06:50:33;2.38;;;1.58;;
31526;SDS011;18136;42.236;-73.040;2024-03-25T06:53:00;1.80;;;1.50;;
31526;SDS011;18136;42.236;-73.040;2024-03-25T06:55:26;1.98;;;1.52;;
31526;SDS011;18136;42.236;-73.040;2024-03-25T06:57:53;1.92;;;1.42;;
31526;SDS011;18136;42.236;-73.040;2024-03-25T07:00:21;5.05;;;1.55;;
31526;SDS011;18136;42.236;-73.040;2024-03-25T07:02:50;1.83;;;1.50;;
31526;SDS011;18136;42.236;-73.040;2024-03-25T07:05:16;2.33;;;1.85;;
31526;SDS011;18136;42.236;-73.040;2024-03-25T07:07:42;3.25;;;1.60;;
31526;SDS011;18136;42.236;-73.040;2024-03-25T07:10:08;1.75;;;1.50;;
31526;SDS011;18136;42.236;-73.040;2024-03-25T07:12:35;2.55;;;1.58;;
31526;SDS011;18136;42.236;-73.040;2024-03-25T07:15:01;2.40;;;1.45;;
31526;SDS011;18136;42.236;-73.040;2024-03-25T07:17:27;1.88;;;1.50;;
31526;SDS011;18136;42.236;-73.040;2024-03-25T07:19:53;1.67;;;1.30;;
31526;SDS011;18136;42.236;-73.040;2024-03-25T07:22:19;1.85;;;1.42;;
31526;SDS011;18136;42.236;-73.040;2024-03-25T07:24:46;2.13;;;1.40;;
31526;SDS011;18136;42.236;-73.040;2024-03-25T07:27:12;1.83;;;1.60;;
31526;SDS011;18136;42.236;-73.040;2024-03-25T07:29:39;2.95;;;1.48;;
31526;SDS011;18136;42.236;-73.040;2024-03-25T07:32:05;2.00;;;1.60;;
31526;SDS011;18136;42.236;-73.040;2024-03-25T07:34:33;2.50;;;1.70;;
31526;SDS011;18136;42.236;-73.040;2024-03-25T07:36:59;2.22;;;1.63;;
31526;SDS011;18136;42.236;-73.040;2024-03-25T07:39:25;1.77;;;1.60;;
31526;SDS011;18136;42.236;-73.040;2024-03-25T07:41:52;3.30;;;1.83;;
31526;SDS011;18136;42.236;-73.040;2024-03-25T07:44:18;2.10;;;1.60;;
31526;SDS011;18136;42.236;-73.040;2024-03-25T07:46:44;2.25;;;1.65;;
31526;SDS011;18136;42.236;-73.040;2024-03-25T07:49:11;2.20;;;1.70;;
31526;SDS011;18136;42.236;-73.040;2024-03-25T07:51:37;2.42;;;1.60;;
31526;SDS011;18136;42.236;-73.040;2024-03-25T07:54:04;4.43;;;1.55;;
31526;SDS011;18136;42.236;-73.040;2024-03-25T07:56:31;2.58;;;1.50;;
31526;SDS011;18136;42.236;-73.040;2024-03-25T07:59:02;4.05;;;1.88;;
31526;SDS011;18136;42.236;-73.040;2024-03-25T08:01:29;3.17;;;2.25;;
31526;SDS011;18136;42.236;-73.040;2024-03-25T08:03:55;2.20;;;1.70;;
31526;SDS011;18136;42.236;-73.040;2024-03-25T08:06:21;1.65;;;1.15;;
31526;SDS011;18136;42.236;-73.040;2024-03-25T08:08:48;2.95;;;1.50;;
31526;SDS011;18136;42.236;-73.040;2024-03-25T08:11:15;1.67;;;1.27;;
31526;SDS011;18136;42.236;-73.040;2024-03-25T08:13:42;1.85;;;1.60;;
31526;SDS011;18136;42.236;-73.040;2024-03-25T08:16:08;1.98;;;1.52;;
31526;SDS011;18136;42.236;-73.040;2024-03-25T08:18:34;1.75;;;1.40;;
31526;SDS011;18136;42.236;-73.040;2024-03-25T08:21:00;1.92;;;1.38;;
31526;SDS011;18136;42.236;-73.040;2024-03-25T08:23:28;1.98;;;1.50;;
31526;SDS011;18136;42.236;-73.040;2024-03-25T08:25:54;5.72;;;1.77;;
31526;SDS011;18136;42.236;-73.040;2024-03-25T08:28:20;2.20;;;1.40;;
31526;SDS011;18136;42.236;-73.040;2024-03-25T08:30:47;2.40;;;1.75;;
31526;SDS011;18136;42.236;-73.040;2024-03-25T08:33:13;2.45;;;1.38;;
31526;SDS011;18136;42.236;-73.040;2024-03-25T08:35:46;2.72;;;1.35;;
31526;SDS011;18136;42.236;-73.040;2024-03-25T08:38:12;3.47;;;1.75;;
31526;SDS011;18136;42.236;-73.040;2024-03-25T08:40:38;2.25;;;1.65;;
31526;SDS011;18136;42.236;-73.040;2024-03-25T08:43:06;2.05;;;1.70;;
31526;SDS011;18136;42.236;-73.040;2024-03-25T08:45:32;3.45;;;1.70;;
31526;SDS011;18136;42.236;-73.040;2024-03-25T08:47:58;3.47;;;1.60;;
31526;SDS011;18136;42.236;-73.040;2024-03-25T08:50:26;2.60;;;1.55;;
31526;SDS011;18136;42.236;-73.040;2024-03-25T08:52:52;1.80;;;1.60;;
31526;SDS011;18136;42.236;-73.040;2024-03-25T08:55:19;2.05;;;1.50;;
31526;SDS011;18136;42.236;-73.040;2024-03-25T08:57:45;2.58;;;1.75;;
31526;SDS011;18136;42.236;-73.040;2024-03-25T09:00:12;2.17;;;1.30;;
31526;SDS011;18136;42.236;-73.040;2024-03-25T09:02:40;2.30;;;1.40;;
31526;SDS011;18136;42.236;-73.040;2024-03-25T09:05:08;1.77;;;1.48;;
31526;SDS011;18136;42.236;-73.040;2024-03-25T09:07:35;2.42;;;1.20;;
31526;SDS011;18136;42.236;-73.040;2024-03-25T09:10:02;2.50;;;1.45;;
31526;SDS011;18136;42.236;-73.040;2024-03-25T09:12:47;1.58;;;1.15;;
31526;SDS011;18136;42.236;-73.040;2024-03-25T09:15:15;1.70;;;1.45;;
31526;SDS011;18136;42.236;-73.040;2024-03-25T09:17:43;1.75;;;1.33;;
31526;SDS011;18136;42.236;-73.040;2024-03-25T09:20:09;2.20;;;1.50;;
31526;SDS011;18136;42.236;-73.040;2024-03-25T09:22:44;2.40;;;1.60;;
31526;SDS011;18136;42.236;-73.040;2024-03-25T09:25:11;1.55;;;1.30;;
31526;SDS011;18136;42.236;-73.040;2024-03-25T09:27:37;1.83;;;1.40;;
31526;SDS011;18136;42.236;-73.040;2024-03-25T09:30:03;2.88;;;1.40;;
31526;SDS011;18136;42.236;-73.040;2024-03-25T09:32:30;2.22;;;1.38;;
31526;SDS011;18136;42.236;-73.040;2024-03-25T09:34:56;1.83;;;1.38;;
31526;SDS011;18136;42.236;-73.040;2024-03-25T09:37:23;2.70;;;1.73;;
31526;SDS011;18136;42.236;-73.040;2024-03-25T09:39:49;1.83;;;1.38;;
31526;SDS011;18136;42.236;-73.040;2024-03-25T09:42:22;2.17;;;1.50;;
31526;SDS011;18136;42.236;-73.040;2024-03-25T09:44:53;1.83;;;1.60;;
31526;SDS011;18136;42.236;-73.040;2024-03-25T09:47:23;2.08;;;1.63;;
31526;SDS011;18136;42.236;-73.040;2024-03-25T09:49:50;1.85;;;1.60;;
31526;SDS011;18136;42.236;-73.040;2024-03-25T09:52:19;5.18;;;2.10;;
31526;SDS011;18136;42.236;-73.040;2024-03-25T09:54:46;2.55;;;1.80;;
31526;SDS011;18136;42.236;-73.040;2024-03-25T09:57:12;3.15;;;1.70;;
31526;SDS011;18136;42.236;-73.040;2024-03-25T09:59:40;2.88;;;2.10;;
31526;SDS011;18136;42.236;-73.040;2024-03-25T10:02:06;2.83;;;1.20;;
31526;SDS011;18136;42.236;-73.040;2024-03-25T10:04:39;2.30;;;1.60;;
31526;SDS011;18136;42.236;-73.040;2024-03-25T10:07:31;2.25;;;1.70;;
31526;SDS011;18136;42.236;-73.040;2024-03-25T10:09:57;1.88;;;1.60;;
31526;SDS011;18136;42.236;-73.040;2024-03-25T10:12:25;1.80;;;1.45;;
31526;SDS011;18136;42.236;-73.040;2024-03-25T10:14:51;4.07;;;1.75;;
31526;SDS011;18136;42.236;-73.040;2024-03-25T10:17:17;2.78;;;1.65;;
31526;SDS011;18136;42.236;-73.040;2024-03-25T10:19:43;2.53;;;1.45;;
31526;SDS011;18136;42.236;-73.040;2024-03-25T10:22:09;3.05;;;1.60;;
31526;SDS011;18136;42.236;-73.040;2024-03-25T10:24:45;2.67;;;1.60;;
31526;SDS011;18136;42.236;-73.040;2024-03-25T10:27:21;3.10;;;1.67;;
31526;SDS011;18136;42.236;-73.040;2024-03-25T10:29:58;5.03;;;1.70;;
31526;SDS011;18136;42.236;-73.040;2024-03-25T10:32:24;3.72;;;1.60;;
31526;SDS011;18136;42.236;-73.040;2024-03-25T10:34:53;1.85;;;1.33;;
31526;SDS011;18136;42.236;-73.040;2024-03-25T10:37:20;1.50;;;1.33;;
31526;SDS011;18136;42.236;-73.040;2024-03-25T10:39:50;1.80;;;1.40;;
31526;SDS011;18136;42.236;-73.040;2024-03-25T10:42:19;1.98;;;1.40;;
31526;SDS011;18136;42.236;-73.040;2024-03-25T10:44:47;1.90;;;1.40;;
31526;SDS011;18136;42.236;-73.040;2024-03-25T10:47:20;3.42;;;1.95;;
31526;SDS011;18136;42.236;-73.040;2024-03-25T10:49:50;2.42;;;1.55;;
31526;SDS011;18136;42.236;-73.040;2024-03-25T10:52:26;1.77;;;1.33;;
31526;SDS011;18136;42.236;-73.040;2024-03-25T10:54:55;1.42;;;1.33;;
31526;SDS011;18136;42.236;-73.040;2024-03-25T10:57:22;1.70;;;1.40;;
31526;SDS011;18136;42.236;-73.040;2024-03-25T10:59:49;2.35;;;1.60;;
31526;SDS011;18136;42.236;-73.040;2024-03-25T11:02:15;2.50;;;1.67;;
31526;SDS011;18136;42.236;-73.040;2024-03-25T11:04:45;1.63;;;1.40;;
31526;SDS011;18136;42.236;-73.040;2024-03-25T11:07:14;2.30;;;1.65;;
31526;SDS011;18136;42.236;-73.040;2024-03-25T11:09:41;2.03;;;1.50;;
31526;SDS011;18136;42.236;-73.040;2024-03-25T11:12:11;1.77;;;1.38;;
31526;SDS011;18136;42.236;-73.040;2024-03-25T11:14:38;2.25;;;1.73;;
31526;SDS011;18136;42.236;-73.040;2024-03-25T11:17:15;2.17;;;1.50;;
31526;SDS011;18136;42.236;-73.040;2024-03-25T11:19:41;2.30;;;1.33;;
31526;SDS011;18136;42.236;-73.040;2024-03-25T11:22:08;1.60;;;1.50;;
31526;SDS011;18136;42.236;-73.040;2024-03-25T11:24:35;1.95;;;1.48;;
31526;SDS011;18136;42.236;-73.040;2024-03-25T11:27:03;1.55;;;1.10;;
31526;SDS011;18136;42.236;-73.040;2024-03-25T11:29:32;2.35;;;1.48;;
31526;SDS011;18136;42.236;-73.040;2024-03-25T11:32:05;3.38;;;1.63;;
31526;SDS011;18136;42.236;-73.040;2024-03-25T11:34:33;2.28;;;1.42;;
31526;SDS011;18136;42.236;-73.040;2024-03-25T11:37:02;2.00;;;1.45;;
31526;SDS011;18136;42.236;-73.040;2024-03-25T11:39:29;3.30;;;1.75;;
31526;SDS011;18136;42.236;-73.040;2024-03-25T11:44:28;2.10;;;1.35;;
31526;SDS011;18136;42.236;-73.040;2024-03-25T11:46:57;1.85;;;1.38;;
31526;SDS011;18136;42.236;-73.040;2024-03-25T11:49:25;1.65;;;1.50;;
31526;SDS011;18136;42.236;-73.040;2024-03-25T11:51:51;2.65;;;1.45;;
31526;SDS011;18136;42.236;-73.040;2024-03-25T11:54:18;2.22;;;1.75;;
31526;SDS011;18136;42.236;-73.040;2024-03-25T11:56:45;1.75;;;1.20;;
31526;SDS011;18136;42.236;-73.040;2024-03-25T11:59:12;2.67;;;1.40;;
31526;SDS011;18136;42.236;-73.040;2024-03-25T12:01:41;2.00;;;1.35;;
31526;SDS011;18136;42.236;-73.040;2024-03-25T12:04:11;1.55;;;1.30;;
31526;SDS011;18136;42.236;-73.040;2024-03-25T12:06:41;3.03;;;1.40;;
31526;SDS011;18136;42.236;-73.040;2024-03-25T12:09:08;2.60;;;1.30;;
31526;SDS011;18136;42.236;-73.040;2024-03-25T12:11:53;2.53;;;1.48;;
31526;SDS011;18136;42.236;-73.040;2024-03-25T12:14:22;2.28;;;1.70;;
31526;SDS011;18136;42.236;-73.040;2024-03-25T12:16:49;2.17;;;1.50;;
31526;SDS011;18136;42.236;-73.040;2024-03-25T12:19:16;1.80;;;1.25;;
31526;SDS011;18136;42.236;-73.040;2024-03-25T12:21:44;2.67;;;1.45;;
31526;SDS011;18136;42.236;-73.040;2024-03-25T12:24:13;1.30;;;1.08;;
31526;SDS011;18136;42.236;-73.040;2024-03-25T12:26:39;1.10;;;1.00;;
31526;SDS011;18136;42.236;-73.040;2024-03-25T12:29:07;1.55;;;1.35;;
31526;SDS011;18136;42.236;-73.040;2024-03-25T12:31:33;1.92;;;1.35;;
31526;SDS011;18136;42.236;-73.040;2024-03-25T12:34:00;2.58;;;1.30;;
31526;SDS011;18136;42.236;-73.040;2024-03-25T12:36:27;1.73;;;1.27;;
31526;SDS011;18136;42.236;-73.040;2024-03-25T12:38:59;1.73;;;1.10;;
31526;SDS011;18136;42.236;-73.040;2024-03-25T12:41:27;2.85;;;1.58;;
31526;SDS011;18136;42.236;-73.040;2024-03-25T12:43:54;3.60;;;1.83;;
31526;SDS011;18136;42.236;-73.040;2024-03-25T12:46:20;2.30;;;1.30;;
31526;SDS011;18136;42.236;-73.040;2024-03-25T12:48:46;2.17;;;1.30;;
31526;SDS011;18136;42.236;-73.040;2024-03-25T12:51:13;3.05;;;1.50;;
31526;SDS011;18136;42.236;-73.040;2024-03-25T12:53:40;1.80;;;1.10;;
31526;SDS011;18136;42.236;-73.040;2024-03-25T12:56:07;2.38;;;1.33;;
31526;SDS011;18136;42.236;-73.040;2024-03-25T12:58:34;1.15;;;1.00;;
31526;SDS011;18136;42.236;-73.040;2024-03-25T13:01:01;2.20;;;1.10;;
31526;SDS011;18136;42.236;-73.040;2024-03-25T13:03:28;1.23;;;1.13;;
31526;SDS011;18136;42.236;-73.040;2024-03-25T13:05:54;3.22;;;1.35;;
31526;SDS011;18136;42.236;-73.040;2024-03-25T13:08:23;2.17;;;1.58;;
31526;SDS011;18136;42.236;-73.040;2024-03-25T13:10:51;1.92;;;0.80;;
31526;SDS011;18136;42.236;-73.040;2024-03-25T13:13:17;2.88;;;1.30;;
31526;SDS011;18136;42.236;-73.040;2024-03-25T13:15:44;2.03;;;1.25;;
31526;SDS011;18136;42.236;-73.040;2024-03-25T13:18:11;1.35;;;1.17;;
31526;SDS011;18136;42.236;-73.040;2024-03-25T13:20:37;1.40;;;1.15;;
31526;SDS011;18136;42.236;-73.040;2024-03-25T13:23:03;2.22;;;1.40;;
31526;SDS011;18136;42.236;-73.040;2024-03-25T13:25:31;3.13;;;1.27;;
31526;SDS011;18136;42.236;-73.040;2024-03-25T13:28:00;2.75;;;1.52;;
31526;SDS011;18136;42.236;-73.040;2024-03-25T13:30:26;1.75;;;1.10;;
31526;SDS011;18136;42.236;-73.040;2024-03-25T13:32:52;2.15;;;1.20;;
31526;SDS011;18136;42.236;-73.040;2024-03-25T13:35:18;2.00;;;1.10;;
31526;SDS011;18136;42.236;-73.040;2024-03-25T13:37:45;1.60;;;1.42;;
31526;SDS011;18136;42.236;-73.040;2024-03-25T13:40:12;1.65;;;1.30;;
31526;SDS011;18136;42.236;-73.040;2024-03-25T13:42:38;2.08;;;1.20;;
31526;SDS011;18136;42.236;-73.040;2024-03-25T13:45:05;1.85;;;1.15;;
31526;SDS011;18136;42.236;-73.040;2024-03-25T13:47:33;1.90;;;0.95;;
31526;SDS011;18136;42.236;-73.040;2024-03-25T13:50:05;2.08;;;1.10;;
31526;SDS011;18136;42.236;-73.040;2024-03-25T13:52:33;2.75;;;1.40;;
31526;SDS011;18136;42.236;-73.040;2024-03-25T13:54:59;1.77;;;1.00;;
31526;SDS011;18136;42.236;-73.040;2024-03-25T13:57:26;1.40;;;0.90;;
31526;SDS011;18136;42.236;-73.040;2024-03-25T14:02:23;1.77;;;1.17;;
31526;SDS011;18136;42.236;-73.040;2024-03-25T14:04:49;1.45;;;1.10;;
31526;SDS011;18136;42.236;-73.040;2024-03-25T14:07:15;1.85;;;0.93;;
31526;SDS011;18136;42.236;-73.040;2024-03-25T14:09:41;1.35;;;1.10;;
31526;SDS011;18136;42.236;-73.040;2024-03-25T14:12:08;1.65;;;1.20;;
31526;SDS011;18136;42.236;-73.040;2024-03-25T14:14:34;2.08;;;1.30;;
31526;SDS011;18136;42.236;-73.040;2024-03-25T14:17:01;0.90;;;0.82;;
31526;SDS011;18136;42.236;-73.040;2024-03-25T14:19:28;2.53;;;1.33;;
31526;SDS011;18136;42.236;-73.040;2024-03-25T14:21:55;1.27;;;1.10;;
31526;SDS011;18136;42.236;-73.040;2024-03-25T14:24:21;1.85;;;1.00;;
31526;SDS011;18136;42.236;-73.040;2024-03-25T14:26:50;1.85;;;1.02;;
31526;SDS011;18136;42.236;-73.040;2024-03-25T14:29:17;1.58;;;1.00;;